sensor_id;sensor_type;location;lat;lon;timestamp;P1;durP1;ratioP1;P2;durP2;ratioP2
54247;SDS011;40161;39.768;2.722;2022-08-19T00:00:41;3.58;;;1.40;;
54247;SDS011;40161;39.768;2.722;2022-08-19T00:03:07;4.35;;;1.60;;
54247;SDS011;40161;39.768;2.722;2022-08-19T00:05:33;4.13;;;1.58;;
54247;SDS011;40161;39.768;2.722;2022-08-19T00:07:59;2.42;;;1.23;;
54247;SDS011;40161;39.768;2.722;2022-08-19T00:10:24;4.03;;;1.42;;
54247;SDS011;40161;39.768;2.722;2022-08-19T00:12:50;3.15;;;1.38;;
54247;SDS011;40161;39.768;2.722;2022-08-19T00:15:17;3.50;;;1.27;;
54247;SDS011;40161;39.768;2.722;2022-08-19T00:17:44;4.50;;;1.40;;
54247;SDS011;40161;39.768;2.722;2022-08-19T00:20:17;2.00;;;1.00;;
54247;SDS011;40161;39.768;2.722;2022-08-19T00:22:44;3.65;;;1.42;;
54247;SDS011;40161;39.768;2.722;2022-08-19T00:25:11;3.28;;;1.30;;
54247;SDS011;40161;39.768;2.722;2022-08-19T00:27:37;3.20;;;1.40;;
54247;SDS011;40161;39.768;2.722;2022-08-19T00:30:04;3.72;;;1.40;;
54247;SDS011;40161;39.768;2.722;2022-08-19T00:32:31;4.38;;;1.42;;
54247;SDS011;40161;39.768;2.722;2022-08-19T00:34:56;3.58;;;1.80;;
54247;SDS011;40161;39.768;2.722;2022-08-19T00:37:23;5.57;;;1.60;;
54247;SDS011;40161;39.768;2.722;2022-08-19T00:39:50;3.70;;;1.30;;
54247;SDS011;40161;39.768;2.722;2022-08-19T00:42:16;10.00;;;1.70;;
54247;SDS011;40161;39.768;2.722;2022-08-19T00:44:44;6.50;;;1.88;;
54247;SDS011;40161;39.768;2.722;2022-08-19T00:47:09;8.77;;;2.03;;
54247;SDS011;40161;39.768;2.722;2022-08-19T00:49:37;6.50;;;1.50;;
54247;SDS011;40161;39.768;2.722;2022-08-19T00:52:14;7.22;;;1.20;;
54247;SDS011;40161;39.768;2.722;2022-08-19T00:54:42;5.78;;;1.63;;
54247;SDS011;40161;39.768;2.722;2022-08-19T00:57:10;4.28;;;1.30;;
54247;SDS011;40161;39.768;2.722;2022-08-19T00:59:39;5.15;;;1.10;;
54247;SDS011;40161;39.768;2.722;2022-08-19T01:02:07;6.00;;;1.20;;
54247;SDS011;40161;39.768;2.722;2022-08-19T01:04:33;3.85;;;1.08;;
54247;SDS011;40161;39.768;2.722;2022-08-19T01:06:58;3.10;;;1.10;;
54247;SDS011;40161;39.768;2.722;2022-08-19T01:09:24;3.00;;;1.00;;
54247;SDS011;40161;39.768;2.722;2022-08-19T01:11:50;4.20;;;1.05;;
54247;SDS011;40161;39.768;2.722;2022-08-19T01:14:16;5.30;;;1.00;;
54247;SDS011;40161;39.768;2.722;2022-08-19T01:16:43;3.45;;;0.90;;
54247;SDS011;40161;39.768;2.722;2022-08-19T01:19:24;2.17;;;0.90;;
54247;SDS011;40161;39.768;2.722;2022-08-19T01:22:01;3.58;;;0.98;;
54247;SDS011;40161;39.768;2.722;2022-08-19T01:24:30;2.67;;;1.08;;
54247;SDS011;40161;39.768;2.722;2022-08-19T01:26:57;2.45;;;0.90;;
54247;SDS011;40161;39.768;2.722;2022-08-19T01:29:22;3.08;;;1.00;;
54247;SDS011;40161;39.768;2.722;2022-08-19T01:31:48;3.33;;;1.00;;
54247;SDS011;40161;39.768;2.722;2022-08-19T01:34:17;3.00;;;0.82;;
54247;SDS011;40161;39.768;2.722;2022-08-19T01:36:44;3.50;;;1.10;;
54247;SDS011;40161;39.768;2.722;2022-08-19T01:39:13;4.05;;;1.30;;
54247;SDS011;40161;39.768;2.722;2022-08-19T01:41:41;5.95;;;1.15;;
54247;SDS011;40161;39.768;2.722;2022-08-19T01:44:07;3.28;;;0.93;;
54247;SDS011;40161;39.768;2.722;2022-08-19T01:46:34;3.50;;;1.20;;
54247;SDS011;40161;39.768;2.722;2022-08-19T01:49:01;4.18;;;1.08;;
54247;SDS011;40161;39.768;2.722;2022-08-19T01:51:29;5.00;;;1.00;;
54247;SDS011;40161;39.768;2.722;2022-08-19T01:53:55;3.55;;;1.23;;
54247;SDS011;40161;39.768;2.722;2022-08-19T01:56:21;3.45;;;1.00;;
54247;SDS011;40161;39.768;2.722;2022-08-19T01:58:55;3.15;;;1.05;;
54247;SDS011;40161;39.768;2.722;2022-08-19T02:01:25;5.13;;;0.80;;
54247;SDS011;40161;39.768;2.722;2022-08-19T02:03:51;3.30;;;1.00;;
54247;SDS011;40161;39.768;2.722;2022-08-19T02:06:18;2.65;;;0.90;;
54247;SDS011;40161;39.768;2.722;2022-08-19T02:08:44;4.20;;;0.90;;
54247;SDS011;40161;39.768;2.722;2022-08-19T02:11:23;2.90;;;1.10;;
54247;SDS011;40161;39.768;2.722;2022-08-19T02:13:59;2.33;;;0.82;;
54247;SDS011;40161;39.768;2.722;2022-08-19T02:16:27;2.97;;;0.90;;
54247;SDS011;40161;39.768;2.722;2022-08-19T02:18:53;4.50;;;1.08;;
54247;SDS011;40161;39.768;2.722;2022-08-19T02:21:20;1.52;;;0.75;;
54247;SDS011;40161;39.768;2.722;2022-08-19T02:23:47;3.00;;;0.80;;
54247;SDS011;40161;39.768;2.722;2022-08-19T02:26:14;3.10;;;1.00;;
54247;SDS011;40161;39.768;2.722;2022-08-19T02:28:40;3.13;;;1.02;;
54247;SDS011;40161;39.768;2.722;2022-08-19T02:31:11;3.28;;;1.05;;
54247;SDS011;40161;39.768;2.722;2022-08-19T02:33:39;2.92;;;1.00;;
54247;SDS011;40161;39.768;2.722;2022-08-19T02:36:06;2.88;;;1.00;;
54247;SDS011;40161;39.768;2.722;2022-08-19T02:38:32;4.18;;;1.00;;
54247;SDS011;40161;39.768;2.722;2022-08-19T02:40:59;2.38;;;0.85;;
54247;SDS011;40161;39.768;2.722;2022-08-19T02:43:28;3.72;;;1.20;;
54247;SDS011;40161;39.768;2.722;2022-08-19T02:45:55;7.15;;;1.17;;
54247;SDS011;40161;39.768;2.722;2022-08-19T02:48:21;7.05;;;1.50;;
54247;SDS011;40161;39.768;2.722;2022-08-19T02:50:49;3.55;;;0.90;;
54247;SDS011;40161;39.768;2.722;2022-08-19T02:53:23;2.33;;;0.88;;
54247;SDS011;40161;39.768;2.722;2022-08-19T02:55:51;3.65;;;1.00;;
54247;SDS011;40161;39.768;2.722;2022-08-19T02:58:17;3.28;;;1.00;;
54247;SDS011;40161;39.768;2.722;2022-08-19T03:00:48;3.88;;;1.00;;
54247;SDS011;40161;39.768;2.722;2022-08-19T03:03:16;2.53;;;0.90;;
54247;SDS011;40161;39.768;2.722;2022-08-19T03:05:43;4.60;;;1.00;;
54247;SDS011;40161;39.768;2.722;2022-08-19T03:08:09;3.28;;;1.10;;
54247;SDS011;40161;39.768;2.722;2022-08-19T03:10:46;4.72;;;1.00;;
54247;SDS011;40161;39.768;2.722;2022-08-19T03:13:16;3.10;;;1.00;;
54247;SDS011;40161;39.768;2.722;2022-08-19T03:15:43;3.67;;;1.00;;
54247;SDS011;40161;39.768;2.722;2022-08-19T03:18:11;1.58;;;0.88;;
54247;SDS011;40161;39.768;2.722;2022-08-19T03:20:44;3.13;;;1.20;;
54247;SDS011;40161;39.768;2.722;2022-08-19T03:23:12;2.55;;;0.90;;
54247;SDS011;40161;39.768;2.722;2022-08-19T03:25:42;2.90;;;0.93;;
54247;SDS011;40161;39.768;2.722;2022-08-19T03:28:13;3.65;;;1.10;;
54247;SDS011;40161;39.768;2.722;2022-08-19T03:30:40;4.70;;;1.10;;
54247;SDS011;40161;39.768;2.722;2022-08-19T03:33:07;5.55;;;1.05;;
54247;SDS011;40161;39.768;2.722;2022-08-19T03:35:34;4.57;;;1.30;;
54247;SDS011;40161;39.768;2.722;2022-08-19T03:38:02;2.55;;;1.00;;
54247;SDS011;40161;39.768;2.722;2022-08-19T03:40:31;3.03;;;1.02;;
54247;SDS011;40161;39.768;2.722;2022-08-19T03:43:00;4.65;;;1.08;;
54247;SDS011;40161;39.768;2.722;2022-08-19T03:45:25;2.78;;;1.00;;
54247;SDS011;40161;39.768;2.722;2022-08-19T03:47:52;3.10;;;0.90;;
54247;SDS011;40161;39.768;2.722;2022-08-19T03:50:18;2.85;;;0.90;;
54247;SDS011;40161;39.768;2.722;2022-08-19T03:52:47;2.40;;;0.90;;
54247;SDS011;40161;39.768;2.722;2022-08-19T03:55:17;2.33;;;1.10;;
54247;SDS011;40161;39.768;2.722;2022-08-19T03:57:43;3.72;;;1.05;;
54247;SDS011;40161;39.768;2.722;2022-08-19T04:00:10;2.55;;;1.17;;
54247;SDS011;40161;39.768;2.722;2022-08-19T04:02:37;2.30;;;1.05;;
54247;SDS011;40161;39.768;2.722;2022-08-19T04:05:03;4.15;;;1.25;;
54247;SDS011;40161;39.768;2.722;2022-08-19T04:07:30;2.85;;;1.02;;
54247;SDS011;40161;39.768;2.722;2022-08-19T04:09:55;5.47;;;1.40;;
54247;SDS011;40161;39.768;2.722;2022-08-19T04:12:21;2.40;;;1.02;;
54247;SDS011;40161;39.768;2.722;2022-08-19T04:14:47;3.75;;;1.30;;
54247;SDS011;40161;39.768;2.722;2022-08-19T04:17:12;4.05;;;1.33;;
54247;SDS011;40161;39.768;2.722;2022-08-19T04:19:39;3.67;;;1.35;;
54247;SDS011;40161;39.768;2.722;2022-08-19T04:22:05;3.15;;;1.17;;
54247;SDS011;40161;39.768;2.722;2022-08-19T04:24:32;5.40;;;1.42;;
54247;SDS011;40161;39.768;2.722;2022-08-19T04:27:00;3.17;;;1.23;;
54247;SDS011;40161;39.768;2.722;2022-08-19T04:29:26;2.95;;;1.10;;
54247;SDS011;40161;39.768;2.722;2022-08-19T04:31:53;2.00;;;1.00;;
54247;SDS011;40161;39.768;2.722;2022-08-19T04:34:21;1.73;;;0.90;;
54247;SDS011;40161;39.768;2.722;2022-08-19T04:36:49;5.10;;;1.45;;
54247;SDS011;40161;39.768;2.722;2022-08-19T04:39:26;5.18;;;1.45;;
54247;SDS011;40161;39.768;2.722;2022-08-19T04:42:12;2.58;;;1.45;;
54247;SDS011;40161;39.768;2.722;2022-08-19T04:44:58;7.00;;;1.67;;
54247;SDS011;40161;39.768;2.722;2022-08-19T04:47:24;4.32;;;1.90;;
54247;SDS011;40161;39.768;2.722;2022-08-19T04:49:49;3.78;;;1.30;;
54247;SDS011;40161;39.768;2.722;2022-08-19T04:52:15;3.45;;;1.13;;
54247;SDS011;40161;39.768;2.722;2022-08-19T04:54:40;4.40;;;1.45;;
54247;SDS011;40161;39.768;2.722;2022-08-19T04:57:07;4.15;;;1.10;;
54247;SDS011;40161;39.768;2.722;2022-08-19T04:59:34;5.15;;;1.38;;
54247;SDS011;40161;39.768;2.722;2022-08-19T05:02:01;2.78;;;1.10;;
54247;SDS011;40161;39.768;2.722;2022-08-19T05:04:28;2.20;;;1.10;;
54247;SDS011;40161;39.768;2.722;2022-08-19T05:06:56;3.35;;;1.13;;
54247;SDS011;40161;39.768;2.722;2022-08-19T05:09:22;3.53;;;1.17;;
54247;SDS011;40161;39.768;2.722;2022-08-19T05:11:48;4.80;;;1.20;;
54247;SDS011;40161;39.768;2.722;2022-08-19T05:14:14;3.17;;;1.05;;
54247;SDS011;40161;39.768;2.722;2022-08-19T05:16:40;4.80;;;1.15;;
54247;SDS011;40161;39.768;2.722;2022-08-19T05:19:06;4.22;;;1.20;;
54247;SDS011;40161;39.768;2.722;2022-08-19T05:21:50;4.15;;;1.35;;
54247;SDS011;40161;39.768;2.722;2022-08-19T05:24:34;3.10;;;1.20;;
54247;SDS011;40161;39.768;2.722;2022-08-19T05:27:00;3.42;;;1.30;;
54247;SDS011;40161;39.768;2.722;2022-08-19T05:29:27;5.38;;;1.65;;
54247;SDS011;40161;39.768;2.722;2022-08-19T05:31:54;4.03;;;1.42;;
54247;SDS011;40161;39.768;2.722;2022-08-19T05:34:20;4.32;;;1.30;;
54247;SDS011;40161;39.768;2.722;2022-08-19T05:36:49;3.67;;;1.40;;
54247;SDS011;40161;39.768;2.722;2022-08-19T05:39:17;3.92;;;1.45;;
54247;SDS011;40161;39.768;2.722;2022-08-19T05:41:45;5.47;;;1.70;;
54247;SDS011;40161;39.768;2.722;2022-08-19T05:44:12;6.32;;;1.40;;
54247;SDS011;40161;39.768;2.722;2022-08-19T05:46:39;2.95;;;1.30;;
54247;SDS011;40161;39.768;2.722;2022-08-19T05:49:08;4.45;;;1.33;;
54247;SDS011;40161;39.768;2.722;2022-08-19T05:51:34;3.83;;;1.40;;
54247;SDS011;40161;39.768;2.722;2022-08-19T05:54:02;3.17;;;1.23;;
54247;SDS011;40161;39.768;2.722;2022-08-19T05:56:30;5.25;;;1.63;;
54247;SDS011;40161;39.768;2.722;2022-08-19T05:58:57;4.15;;;1.67;;
54247;SDS011;40161;39.768;2.722;2022-08-19T06:01:23;8.55;;;3.97;;
54247;SDS011;40161;39.768;2.722;2022-08-19T06:03:51;8.02;;;3.47;;
54247;SDS011;40161;39.768;2.722;2022-08-19T06:06:17;8.88;;;3.92;;
54247;SDS011;40161;39.768;2.722;2022-08-19T06:08:43;10.35;;;6.50;;
54247;SDS011;40161;39.768;2.722;2022-08-19T06:11:24;8.90;;;4.80;;
54247;SDS011;40161;39.768;2.722;2022-08-19T06:13:59;15.75;;;8.45;;
54247;SDS011;40161;39.768;2.722;2022-08-19T06:16:27;12.40;;;6.72;;
54247;SDS011;40161;39.768;2.722;2022-08-19T06:18:54;13.15;;;7.05;;
54247;SDS011;40161;39.768;2.722;2022-08-19T06:21:23;8.90;;;4.53;;
54247;SDS011;40161;39.768;2.722;2022-08-19T06:27:15;19.70;;;11.68;;
54247;SDS011;40161;39.768;2.722;2022-08-19T06:29:40;19.45;;;12.15;;
54247;SDS011;40161;39.768;2.722;2022-08-19T06:32:07;23.73;;;15.38;;
54247;SDS011;40161;39.768;2.722;2022-08-19T06:34:33;50.42;;;34.03;;
54247;SDS011;40161;39.768;2.722;2022-08-19T06:37:00;67.57;;;42.63;;
54247;SDS011;40161;39.768;2.722;2022-08-19T06:39:27;60.13;;;39.58;;
54247;SDS011;40161;39.768;2.722;2022-08-19T06:41:57;90.22;;;53.60;;
54247;SDS011;40161;39.768;2.722;2022-08-19T06:44:26;55.45;;;38.60;;
54247;SDS011;40161;39.768;2.722;2022-08-19T06:46:54;35.03;;;22.23;;
54247;SDS011;40161;39.768;2.722;2022-08-19T06:49:21;28.70;;;20.50;;
54247;SDS011;40161;39.768;2.722;2022-08-19T06:51:47;28.67;;;20.13;;
54247;SDS011;40161;39.768;2.722;2022-08-19T06:54:14;26.33;;;17.73;;
54247;SDS011;40161;39.768;2.722;2022-08-19T06:56:40;22.42;;;15.48;;
54247;SDS011;40161;39.768;2.722;2022-08-19T06:59:08;21.30;;;14.18;;
54247;SDS011;40161;39.768;2.722;2022-08-19T07:01:40;27.83;;;16.00;;
54247;SDS011;40161;39.768;2.722;2022-08-19T07:04:10;32.80;;;18.67;;
54247;SDS011;40161;39.768;2.722;2022-08-19T07:06:36;43.17;;;25.58;;
54247;SDS011;40161;39.768;2.722;2022-08-19T07:09:03;43.65;;;28.27;;
54247;SDS011;40161;39.768;2.722;2022-08-19T07:11:33;59.03;;;37.78;;
54247;SDS011;40161;39.768;2.722;2022-08-19T07:14:02;64.40;;;40.50;;
54247;SDS011;40161;39.768;2.722;2022-08-19T07:16:27;55.65;;;38.25;;
54247;SDS011;40161;39.768;2.722;2022-08-19T07:18:53;43.17;;;29.38;;
54247;SDS011;40161;39.768;2.722;2022-08-19T07:21:21;39.72;;;26.67;;
54247;SDS011;40161;39.768;2.722;2022-08-19T07:23:51;72.38;;;43.45;;
54247;SDS011;40161;39.768;2.722;2022-08-19T07:26:19;52.03;;;34.10;;
54247;SDS011;40161;39.768;2.722;2022-08-19T07:28:47;63.90;;;37.10;;
54247;SDS011;40161;39.768;2.722;2022-08-19T07:31:13;51.65;;;33.28;;
54247;SDS011;40161;39.768;2.722;2022-08-19T07:33:43;73.78;;;44.80;;
54247;SDS011;40161;39.768;2.722;2022-08-19T07:36:09;71.65;;;44.40;;
54247;SDS011;40161;39.768;2.722;2022-08-19T07:38:36;67.38;;;40.03;;
54247;SDS011;40161;39.768;2.722;2022-08-19T07:41:04;68.07;;;41.15;;
54247;SDS011;40161;39.768;2.722;2022-08-19T07:43:30;75.90;;;47.85;;
54247;SDS011;40161;39.768;2.722;2022-08-19T07:45:56;145.35;;;106.65;;
54247;SDS011;40161;39.768;2.722;2022-08-19T07:48:26;98.38;;;70.60;;
54247;SDS011;40161;39.768;2.722;2022-08-19T07:50:53;98.47;;;69.22;;
54247;SDS011;40161;39.768;2.722;2022-08-19T07:53:22;89.75;;;62.75;;
54247;SDS011;40161;39.768;2.722;2022-08-19T07:55:49;83.57;;;57.92;;
54247;SDS011;40161;39.768;2.722;2022-08-19T07:58:17;63.67;;;44.35;;
54247;SDS011;40161;39.768;2.722;2022-08-19T08:00:45;39.33;;;28.40;;
54247;SDS011;40161;39.768;2.722;2022-08-19T08:06:34;12.10;;;6.13;;
54247;SDS011;40161;39.768;2.722;2022-08-19T08:09:25;9.68;;;4.28;;
54247;SDS011;40161;39.768;2.722;2022-08-19T08:12:00;12.13;;;4.53;;
54247;SDS011;40161;39.768;2.722;2022-08-19T08:14:33;11.77;;;5.68;;
54247;SDS011;40161;39.768;2.722;2022-08-19T08:17:04;10.93;;;5.18;;
54247;SDS011;40161;39.768;2.722;2022-08-19T08:19:31;9.88;;;3.60;;
54247;SDS011;40161;39.768;2.722;2022-08-19T08:21:57;5.38;;;2.70;;
54247;SDS011;40161;39.768;2.722;2022-08-19T08:24:25;8.27;;;2.55;;
54247;SDS011;40161;39.768;2.722;2022-08-19T08:26:51;6.22;;;1.55;;
54247;SDS011;40161;39.768;2.722;2022-08-19T08:29:17;4.57;;;1.60;;
54247;SDS011;40161;39.768;2.722;2022-08-19T08:31:44;7.95;;;2.53;;
54247;SDS011;40161;39.768;2.722;2022-08-19T08:34:12;4.28;;;1.60;;
54247;SDS011;40161;39.768;2.722;2022-08-19T08:36:39;7.28;;;2.30;;
54247;SDS011;40161;39.768;2.722;2022-08-19T08:39:11;4.88;;;1.63;;
54247;SDS011;40161;39.768;2.722;2022-08-19T08:47:34;5.18;;;1.00;;
54247;SDS011;40161;39.768;2.722;2022-08-19T08:50:06;5.47;;;1.00;;
54247;SDS011;40161;39.768;2.722;2022-08-19T08:52:41;4.57;;;1.10;;
54247;SDS011;40161;39.768;2.722;2022-08-19T08:55:15;2.42;;;0.70;;
54247;SDS011;40161;39.768;2.722;2022-08-19T09:00:17;3.30;;;0.70;;
54247;SDS011;40161;39.768;2.722;2022-08-19T09:02:47;2.75;;;0.70;;
54247;SDS011;40161;39.768;2.722;2022-08-19T09:05:13;2.58;;;0.50;;
54247;SDS011;40161;39.768;2.722;2022-08-19T09:10:40;2.17;;;0.60;;
54247;SDS011;40161;39.768;2.722;2022-08-19T09:15:42;2.15;;;0.88;;
54247;SDS011;40161;39.768;2.722;2022-08-19T09:18:13;3.47;;;0.63;;
54247;SDS011;40161;39.768;2.722;2022-08-19T09:20:41;2.80;;;0.77;;
54247;SDS011;40161;39.768;2.722;2022-08-19T09:23:06;5.00;;;0.73;;
54247;SDS011;40161;39.768;2.722;2022-08-19T09:25:33;2.42;;;0.60;;
54247;SDS011;40161;39.768;2.722;2022-08-19T09:27:59;2.05;;;0.65;;
54247;SDS011;40161;39.768;2.722;2022-08-19T09:30:28;2.20;;;0.60;;
54247;SDS011;40161;39.768;2.722;2022-08-19T09:32:56;1.25;;;0.50;;
54247;SDS011;40161;39.768;2.722;2022-08-19T09:35:23;6.30;;;0.80;;
54247;SDS011;40161;39.768;2.722;2022-08-19T09:37:51;3.00;;;0.80;;
54247;SDS011;40161;39.768;2.722;2022-08-19T09:40:18;1.70;;;0.60;;
54247;SDS011;40161;39.768;2.722;2022-08-19T09:42:45;5.03;;;0.60;;
54247;SDS011;40161;39.768;2.722;2022-08-19T09:45:14;3.55;;;0.52;;
54247;SDS011;40161;39.768;2.722;2022-08-19T09:47:41;2.40;;;0.75;;
54247;SDS011;40161;39.768;2.722;2022-08-19T09:50:07;5.25;;;0.75;;
54247;SDS011;40161;39.768;2.722;2022-08-19T09:52:34;3.20;;;0.60;;
54247;SDS011;40161;39.768;2.722;2022-08-19T09:55:10;3.00;;;0.55;;
54247;SDS011;40161;39.768;2.722;2022-08-19T09:57:36;2.15;;;0.52;;
54247;SDS011;40161;39.768;2.722;2022-08-19T10:00:07;1.35;;;0.50;;
54247;SDS011;40161;39.768;2.722;2022-08-19T10:05:36;4.55;;;1.45;;
54247;SDS011;40161;39.768;2.722;2022-08-19T10:08:18;3.05;;;0.80;;
54247;SDS011;40161;39.768;2.722;2022-08-19T10:10:45;3.42;;;0.77;;
54247;SDS011;40161;39.768;2.722;2022-08-19T10:13:11;4.00;;;0.70;;
54247;SDS011;40161;39.768;2.722;2022-08-19T10:15:37;2.35;;;0.80;;
54247;SDS011;40161;39.768;2.722;2022-08-19T10:18:06;2.75;;;0.70;;
54247;SDS011;40161;39.768;2.722;2022-08-19T10:20:32;2.58;;;0.70;;
54247;SDS011;40161;39.768;2.722;2022-08-19T10:23:01;1.77;;;0.50;;
54247;SDS011;40161;39.768;2.722;2022-08-19T10:25:28;2.97;;;0.85;;
54247;SDS011;40161;39.768;2.722;2022-08-19T10:27:53;3.28;;;0.80;;
54247;SDS011;40161;39.768;2.722;2022-08-19T10:30:19;3.03;;;1.10;;
54247;SDS011;40161;39.768;2.722;2022-08-19T10:32:45;3.33;;;1.10;;
54247;SDS011;40161;39.768;2.722;2022-08-19T10:35:11;3.28;;;0.93;;
54247;SDS011;40161;39.768;2.722;2022-08-19T10:37:37;4.40;;;1.30;;
54247;SDS011;40161;39.768;2.722;2022-08-19T10:40:05;4.00;;;1.25;;
54247;SDS011;40161;39.768;2.722;2022-08-19T10:45:54;4.60;;;1.10;;
54247;SDS011;40161;39.768;2.722;2022-08-19T10:48:24;2.00;;;0.60;;
54247;SDS011;40161;39.768;2.722;2022-08-19T10:50:49;3.45;;;0.68;;
54247;SDS011;40161;39.768;2.722;2022-08-19T10:53:33;2.95;;;0.63;;
54247;SDS011;40161;39.768;2.722;2022-08-19T10:55:59;3.25;;;0.50;;
54247;SDS011;40161;39.768;2.722;2022-08-19T10:58:43;2.30;;;0.70;;
54247;SDS011;40161;39.768;2.722;2022-08-19T11:01:09;4.00;;;1.00;;
54247;SDS011;40161;39.768;2.722;2022-08-19T11:03:35;1.80;;;0.70;;
54247;SDS011;40161;39.768;2.722;2022-08-19T11:06:01;3.05;;;0.75;;
54247;SDS011;40161;39.768;2.722;2022-08-19T11:08:29;3.92;;;0.60;;
54247;SDS011;40161;39.768;2.722;2022-08-19T11:10:57;2.08;;;0.70;;
54247;SDS011;40161;39.768;2.722;2022-08-19T11:13:33;1.60;;;0.52;;
54247;SDS011;40161;39.768;2.722;2022-08-19T11:18:34;3.92;;;0.93;;
54247;SDS011;40161;39.768;2.722;2022-08-19T11:21:08;3.00;;;0.73;;
54247;SDS011;40161;39.768;2.722;2022-08-19T11:23:45;2.45;;;0.60;;
54247;SDS011;40161;39.768;2.722;2022-08-19T11:26:12;3.05;;;0.73;;
54247;SDS011;40161;39.768;2.722;2022-08-19T11:28:38;1.98;;;0.70;;
54247;SDS011;40161;39.768;2.722;2022-08-19T11:31:08;3.08;;;0.90;;
54247;SDS011;40161;39.768;2.722;2022-08-19T11:33:38;5.25;;;1.60;;
54247;SDS011;40161;39.768;2.722;2022-08-19T11:36:04;5.38;;;0.77;;
54247;SDS011;40161;39.768;2.722;2022-08-19T11:38:29;4.82;;;0.70;;
54247;SDS011;40161;39.768;2.722;2022-08-19T11:40:59;2.55;;;1.10;;
54247;SDS011;40161;39.768;2.722;2022-08-19T11:43:26;2.35;;;0.77;;
54247;SDS011;40161;39.768;2.722;2022-08-19T11:45:53;4.15;;;0.82;;
54247;SDS011;40161;39.768;2.722;2022-08-19T11:48:20;4.22;;;0.80;;
54247;SDS011;40161;39.768;2.722;2022-08-19T11:50:49;3.20;;;1.05;;
54247;SDS011;40161;39.768;2.722;2022-08-19T11:53:16;2.47;;;0.75;;
54247;SDS011;40161;39.768;2.722;2022-08-19T11:55:43;2.47;;;0.63;;
54247;SDS011;40161;39.768;2.722;2022-08-19T11:58:10;4.03;;;1.00;;
54247;SDS011;40161;39.768;2.722;2022-08-19T12:00:37;2.47;;;0.65;;
54247;SDS011;40161;39.768;2.722;2022-08-19T12:03:03;4.40;;;0.90;;
54247;SDS011;40161;39.768;2.722;2022-08-19T12:05:29;4.70;;;0.60;;
54247;SDS011;40161;39.768;2.722;2022-08-19T12:07:54;3.80;;;0.70;;
54247;SDS011;40161;39.768;2.722;2022-08-19T12:10:21;2.53;;;0.70;;
54247;SDS011;40161;39.768;2.722;2022-08-19T12:12:47;2.67;;;0.75;;
54247;SDS011;40161;39.768;2.722;2022-08-19T12:15:13;4.28;;;1.00;;
54247;SDS011;40161;39.768;2.722;2022-08-19T12:17:39;3.13;;;0.65;;
54247;SDS011;40161;39.768;2.722;2022-08-19T12:20:07;4.65;;;0.95;;
54247;SDS011;40161;39.768;2.722;2022-08-19T12:22:35;2.70;;;0.80;;
54247;SDS011;40161;39.768;2.722;2022-08-19T12:25:01;5.18;;;0.80;;
54247;SDS011;40161;39.768;2.722;2022-08-19T12:27:27;2.60;;;0.50;;
54247;SDS011;40161;39.768;2.722;2022-08-19T12:29:52;2.13;;;0.68;;
54247;SDS011;40161;39.768;2.722;2022-08-19T12:32:18;4.60;;;0.80;;
54247;SDS011;40161;39.768;2.722;2022-08-19T12:34:44;4.03;;;0.82;;
54247;SDS011;40161;39.768;2.722;2022-08-19T12:37:12;3.60;;;0.80;;
54247;SDS011;40161;39.768;2.722;2022-08-19T12:39:39;1.52;;;0.63;;
54247;SDS011;40161;39.768;2.722;2022-08-19T12:42:06;4.10;;;0.98;;
54247;SDS011;40161;39.768;2.722;2022-08-19T12:44:34;3.42;;;0.80;;
54247;SDS011;40161;39.768;2.722;2022-08-19T12:47:00;4.32;;;0.85;;
54247;SDS011;40161;39.768;2.722;2022-08-19T12:49:30;4.38;;;0.90;;
54247;SDS011;40161;39.768;2.722;2022-08-19T12:51:59;2.45;;;0.70;;
54247;SDS011;40161;39.768;2.722;2022-08-19T12:54:25;3.60;;;1.77;;
54247;SDS011;40161;39.768;2.722;2022-08-19T12:56:52;4.15;;;0.90;;
54247;SDS011;40161;39.768;2.722;2022-08-19T12:59:17;4.38;;;0.80;;
54247;SDS011;40161;39.768;2.722;2022-08-19T13:01:43;2.80;;;0.80;;
54247;SDS011;40161;39.768;2.722;2022-08-19T13:04:09;2.58;;;0.70;;
54247;SDS011;40161;39.768;2.722;2022-08-19T13:06:35;2.10;;;0.70;;
54247;SDS011;40161;39.768;2.722;2022-08-19T13:09:02;4.80;;;0.68;;
54247;SDS011;40161;39.768;2.722;2022-08-19T13:11:28;4.82;;;0.73;;
54247;SDS011;40161;39.768;2.722;2022-08-19T13:13:57;1.90;;;0.70;;
54247;SDS011;40161;39.768;2.722;2022-08-19T13:16:24;2.53;;;0.80;;
54247;SDS011;40161;39.768;2.722;2022-08-19T13:18:50;4.88;;;0.80;;
54247;SDS011;40161;39.768;2.722;2022-08-19T13:21:19;2.53;;;0.98;;
54247;SDS011;40161;39.768;2.722;2022-08-19T13:23:47;2.00;;;0.60;;
54247;SDS011;40161;39.768;2.722;2022-08-19T13:26:13;2.80;;;0.70;;
54247;SDS011;40161;39.768;2.722;2022-08-19T13:28:40;5.30;;;1.00;;
54247;SDS011;40161;39.768;2.722;2022-08-19T13:31:25;3.92;;;0.95;;
54247;SDS011;40161;39.768;2.722;2022-08-19T13:34:11;3.42;;;0.85;;
54247;SDS011;40161;39.768;2.722;2022-08-19T13:36:37;2.95;;;0.70;;
54247;SDS011;40161;39.768;2.722;2022-08-19T13:39:04;5.78;;;0.98;;
54247;SDS011;40161;39.768;2.722;2022-08-19T13:41:30;2.33;;;0.90;;
54247;SDS011;40161;39.768;2.722;2022-08-19T13:43:56;3.22;;;0.80;;
54247;SDS011;40161;39.768;2.722;2022-08-19T13:46:22;4.15;;;0.77;;
54247;SDS011;40161;39.768;2.722;2022-08-19T13:48:47;3.15;;;0.82;;
54247;SDS011;40161;39.768;2.722;2022-08-19T13:51:14;4.30;;;0.95;;
54247;SDS011;40161;39.768;2.722;2022-08-19T13:53:41;3.10;;;0.70;;
54247;SDS011;40161;39.768;2.722;2022-08-19T13:56:08;4.50;;;0.70;;
54247;SDS011;40161;39.768;2.722;2022-08-19T13:58:36;2.45;;;0.70;;
54247;SDS011;40161;39.768;2.722;2022-08-19T14:01:02;4.07;;;0.80;;
54247;SDS011;40161;39.768;2.722;2022-08-19T14:03:28;1.98;;;0.70;;
54247;SDS011;40161;39.768;2.722;2022-08-19T14:05:55;2.22;;;0.65;;
54247;SDS011;40161;39.768;2.722;2022-08-19T14:08:20;2.88;;;0.70;;
54247;SDS011;40161;39.768;2.722;2022-08-19T14:10:46;3.90;;;0.90;;
54247;SDS011;40161;39.768;2.722;2022-08-19T14:13:16;3.10;;;0.90;;
54247;SDS011;40161;39.768;2.722;2022-08-19T14:15:44;4.85;;;0.90;;
54247;SDS011;40161;39.768;2.722;2022-08-19T14:18:12;2.67;;;0.90;;
54247;SDS011;40161;39.768;2.722;2022-08-19T14:20:38;4.78;;;0.90;;
54247;SDS011;40161;39.768;2.722;2022-08-19T14:23:04;2.80;;;0.85;;
54247;SDS011;40161;39.768;2.722;2022-08-19T14:25:32;4.07;;;0.90;;
54247;SDS011;40161;39.768;2.722;2022-08-19T14:27:59;2.55;;;0.80;;
54247;SDS011;40161;39.768;2.722;2022-08-19T14:30:26;4.72;;;0.95;;
54247;SDS011;40161;39.768;2.722;2022-08-19T14:32:54;1.63;;;0.65;;
54247;SDS011;40161;39.768;2.722;2022-08-19T14:35:23;6.03;;;1.30;;
54247;SDS011;40161;39.768;2.722;2022-08-19T14:37:49;2.50;;;0.80;;
54247;SDS011;40161;39.768;2.722;2022-08-19T14:40:16;4.78;;;0.73;;
54247;SDS011;40161;39.768;2.722;2022-08-19T14:42:45;4.47;;;0.98;;
54247;SDS011;40161;39.768;2.722;2022-08-19T14:45:11;4.07;;;0.75;;
54247;SDS011;40161;39.768;2.722;2022-08-19T14:47:37;3.75;;;0.65;;
54247;SDS011;40161;39.768;2.722;2022-08-19T14:50:04;3.70;;;1.00;;
54247;SDS011;40161;39.768;2.722;2022-08-19T14:52:34;4.07;;;1.00;;
54247;SDS011;40161;39.768;2.722;2022-08-19T14:54:59;2.25;;;0.80;;
54247;SDS011;40161;39.768;2.722;2022-08-19T14:57:25;2.63;;;1.00;;
54247;SDS011;40161;39.768;2.722;2022-08-19T14:59:50;5.22;;;0.88;;
54247;SDS011;40161;39.768;2.722;2022-08-19T15:02:16;2.70;;;0.70;;
54247;SDS011;40161;39.768;2.722;2022-08-19T15:04:41;1.70;;;0.70;;
54247;SDS011;40161;39.768;2.722;2022-08-19T15:07:08;3.30;;;0.90;;
54247;SDS011;40161;39.768;2.722;2022-08-19T15:09:34;3.53;;;0.90;;
54247;SDS011;40161;39.768;2.722;2022-08-19T15:12:00;2.05;;;0.80;;
54247;SDS011;40161;39.768;2.722;2022-08-19T15:14:26;2.33;;;0.55;;
54247;SDS011;40161;39.768;2.722;2022-08-19T15:16:59;4.45;;;0.80;;
54247;SDS011;40161;39.768;2.722;2022-08-19T15:19:26;3.67;;;0.85;;